sensor_id;sensor_type;location;lat;lon;timestamp;P1;durP1;ratioP1;P2;durP2;ratioP2
62610;SDS011;48683;48.084;17.272;2023-06-26T00:00:15;7.30;;;6.27;;
62610;SDS011;48683;48.084;17.272;2023-06-26T00:02:40;7.57;;;6.37;;
62610;SDS011;48683;48.084;17.272;2023-06-26T00:05:06;7.73;;;6.80;;
62610;SDS011;48683;48.084;17.272;2023-06-26T00:07:31;6.97;;;5.90;;
62610;SDS011;48683;48.084;17.272;2023-06-26T00:09:59;6.78;;;5.97;;
62610;SDS011;48683;48.084;17.272;2023-06-26T00:12:25;6.90;;;5.85;;
62610;SDS011;48683;48.084;17.272;2023-06-26T00:14:50;7.43;;;5.73;;
62610;SDS011;48683;48.084;17.272;2023-06-26T00:17:16;8.03;;;6.17;;
62610;SDS011;48683;48.084;17.272;2023-06-26T00:19:41;9.27;;;5.83;;
62610;SDS011;48683;48.084;17.272;2023-06-26T00:22:06;8.00;;;7.17;;
62610;SDS011;48683;48.084;17.272;2023-06-26T00:24:32;6.80;;;6.07;;
62610;SDS011;48683;48.084;17.272;2023-06-26T00:26:57;6.30;;;5.70;;
62610;SDS011;48683;48.084;17.272;2023-06-26T00:29:23;7.07;;;6.25;;
62610;SDS011;48683;48.084;17.272;2023-06-26T00:31:49;7.40;;;6.00;;
62610;SDS011;48683;48.084;17.272;2023-06-26T00:34:15;7.33;;;5.90;;
62610;SDS011;48683;48.084;17.272;2023-06-26T00:36:40;8.88;;;6.43;;
62610;SDS011;48683;48.084;17.272;2023-06-26T00:39:08;8.50;;;7.32;;
62610;SDS011;48683;48.084;17.272;2023-06-26T00:41:34;10.20;;;8.18;;
62610;SDS011;48683;48.084;17.272;2023-06-26T00:44:01;9.20;;;7.20;;
62610;SDS011;48683;48.084;17.272;2023-06-26T00:46:27;8.10;;;6.63;;
62610;SDS011;48683;48.084;17.272;2023-06-26T00:48:52;7.83;;;7.03;;
62610;SDS011;48683;48.084;17.272;2023-06-26T00:51:17;9.37;;;7.33;;
62610;SDS011;48683;48.084;17.272;2023-06-26T00:53:43;8.77;;;6.87;;
62610;SDS011;48683;48.084;17.272;2023-06-26T00:56:09;10.27;;;7.20;;
62610;SDS011;48683;48.084;17.272;2023-06-26T00:58:35;11.23;;;7.32;;
62610;SDS011;48683;48.084;17.272;2023-06-26T01:01:00;9.03;;;7.27;;
62610;SDS011;48683;48.084;17.272;2023-06-26T01:03:26;10.53;;;7.97;;
62610;SDS011;48683;48.084;17.272;2023-06-26T01:05:52;7.13;;;6.43;;
62610;SDS011;48683;48.084;17.272;2023-06-26T01:08:18;7.10;;;6.38;;
62610;SDS011;48683;48.084;17.272;2023-06-26T01:10:45;8.25;;;7.22;;
62610;SDS011;48683;48.084;17.272;2023-06-26T01:13:12;11.85;;;7.30;;
62610;SDS011;48683;48.084;17.272;2023-06-26T01:15:38;8.38;;;7.45;;
62610;SDS011;48683;48.084;17.272;2023-06-26T01:18:04;8.77;;;7.60;;
62610;SDS011;48683;48.084;17.272;2023-06-26T01:20:31;10.55;;;7.47;;
62610;SDS011;48683;48.084;17.272;2023-06-26T01:27:56;10.05;;;8.00;;
62610;SDS011;48683;48.084;17.272;2023-06-26T01:30:22;10.95;;;8.07;;
62610;SDS011;48683;48.084;17.272;2023-06-26T01:32:50;10.13;;;8.32;;
62610;SDS011;48683;48.084;17.272;2023-06-26T01:35:15;10.17;;;8.03;;
62610;SDS011;48683;48.084;17.272;2023-06-26T01:37:42;9.93;;;7.70;;
62610;SDS011;48683;48.084;17.272;2023-06-26T01:40:07;11.53;;;8.43;;
62610;SDS011;48683;48.084;17.272;2023-06-26T01:42:33;10.03;;;7.67;;
62610;SDS011;48683;48.084;17.272;2023-06-26T01:45:01;9.30;;;7.90;;
62610;SDS011;48683;48.084;17.272;2023-06-26T01:47:49;12.10;;;8.13;;
62610;SDS011;48683;48.084;17.272;2023-06-26T01:50:17;9.65;;;8.02;;
62610;SDS011;48683;48.084;17.272;2023-06-26T01:52:49;8.35;;;7.53;;
62610;SDS011;48683;48.084;17.272;2023-06-26T01:55:40;8.80;;;7.82;;
62610;SDS011;48683;48.084;17.272;2023-06-26T01:58:15;10.70;;;7.80;;
62610;SDS011;48683;48.084;17.272;2023-06-26T02:00:42;9.00;;;7.97;;
62610;SDS011;48683;48.084;17.272;2023-06-26T02:03:08;10.82;;;8.52;;
62610;SDS011;48683;48.084;17.272;2023-06-26T02:05:33;9.40;;;7.03;;
62610;SDS011;48683;48.084;17.272;2023-06-26T02:07:59;8.90;;;6.97;;
62610;SDS011;48683;48.084;17.272;2023-06-26T02:10:26;8.60;;;7.13;;
62610;SDS011;48683;48.084;17.272;2023-06-26T02:12:51;10.57;;;8.33;;
62610;SDS011;48683;48.084;17.272;2023-06-26T02:15:17;8.03;;;6.80;;
62610;SDS011;48683;48.084;17.272;2023-06-26T02:17:42;12.00;;;8.23;;
62610;SDS011;48683;48.084;17.272;2023-06-26T02:20:07;10.53;;;8.07;;
62610;SDS011;48683;48.084;17.272;2023-06-26T02:22:35;11.27;;;7.60;;
62610;SDS011;48683;48.084;17.272;2023-06-26T02:25:00;9.53;;;6.93;;
62610;SDS011;48683;48.084;17.272;2023-06-26T02:27:25;8.33;;;7.53;;
62610;SDS011;48683;48.084;17.272;2023-06-26T02:29:51;9.10;;;7.60;;
62610;SDS011;48683;48.084;17.272;2023-06-26T02:32:16;13.77;;;7.90;;
62610;SDS011;48683;48.084;17.272;2023-06-26T02:34:42;8.83;;;7.37;;
62610;SDS011;48683;48.084;17.272;2023-06-26T02:37:07;10.17;;;7.37;;
62610;SDS011;48683;48.084;17.272;2023-06-26T02:39:33;10.30;;;7.60;;
62610;SDS011;48683;48.084;17.272;2023-06-26T02:41:59;12.07;;;7.65;;
62610;SDS011;48683;48.084;17.272;2023-06-26T02:44:25;11.03;;;7.80;;
62610;SDS011;48683;48.084;17.272;2023-06-26T02:46:50;8.00;;;7.20;;
62610;SDS011;48683;48.084;17.272;2023-06-26T02:49:15;10.10;;;8.03;;
62610;SDS011;48683;48.084;17.272;2023-06-26T02:51:41;8.77;;;7.97;;
62610;SDS011;48683;48.084;17.272;2023-06-26T02:54:06;11.57;;;8.10;;
62610;SDS011;48683;48.084;17.272;2023-06-26T02:56:31;9.53;;;8.33;;
62610;SDS011;48683;48.084;17.272;2023-06-26T02:58:57;10.00;;;7.97;;
62610;SDS011;48683;48.084;17.272;2023-06-26T03:01:22;10.10;;;8.20;;
62610;SDS011;48683;48.084;17.272;2023-06-26T03:03:48;10.17;;;7.73;;
62610;SDS011;48683;48.084;17.272;2023-06-26T03:06:13;10.13;;;7.97;;
62610;SDS011;48683;48.084;17.272;2023-06-26T03:08:39;8.38;;;7.43;;
62610;SDS011;48683;48.084;17.272;2023-06-26T03:11:05;11.23;;;7.90;;
62610;SDS011;48683;48.084;17.272;2023-06-26T03:13:34;10.50;;;7.72;;
62610;SDS011;48683;48.084;17.272;2023-06-26T03:16:00;10.48;;;7.80;;
62610;SDS011;48683;48.084;17.272;2023-06-26T03:18:26;10.60;;;8.80;;
62610;SDS011;48683;48.084;17.272;2023-06-26T03:20:51;11.47;;;8.23;;
62610;SDS011;48683;48.084;17.272;2023-06-26T03:23:19;9.60;;;7.18;;
62610;SDS011;48683;48.084;17.272;2023-06-26T03:25:45;10.38;;;7.65;;
62610;SDS011;48683;48.084;17.272;2023-06-26T03:28:10;8.63;;;7.53;;
62610;SDS011;48683;48.084;17.272;2023-06-26T03:30:35;11.30;;;7.57;;
62610;SDS011;48683;48.084;17.272;2023-06-26T03:33:01;9.53;;;8.40;;
62610;SDS011;48683;48.084;17.272;2023-06-26T03:35:26;9.87;;;8.40;;
62610;SDS011;48683;48.084;17.272;2023-06-26T03:37:51;12.87;;;8.30;;
62610;SDS011;48683;48.084;17.272;2023-06-26T03:40:17;11.27;;;8.23;;
62610;SDS011;48683;48.084;17.272;2023-06-26T03:42:42;9.43;;;8.13;;
62610;SDS011;48683;48.084;17.272;2023-06-26T03:45:07;10.00;;;7.57;;
62610;SDS011;48683;48.084;17.272;2023-06-26T03:47:33;9.70;;;7.67;;
62610;SDS011;48683;48.084;17.272;2023-06-26T03:49:58;10.23;;;7.30;;
62610;SDS011;48683;48.084;17.272;2023-06-26T03:52:23;11.13;;;7.87;;
62610;SDS011;48683;48.084;17.272;2023-06-26T03:54:49;10.40;;;7.47;;
62610;SDS011;48683;48.084;17.272;2023-06-26T03:57:14;10.27;;;8.07;;
62610;SDS011;48683;48.084;17.272;2023-06-26T03:59:39;10.70;;;7.57;;
62610;SDS011;48683;48.084;17.272;2023-06-26T04:02:05;11.13;;;7.80;;
62610;SDS011;48683;48.084;17.272;2023-06-26T04:04:30;8.20;;;7.10;;
62610;SDS011;48683;48.084;17.272;2023-06-26T04:06:56;10.10;;;7.27;;
62610;SDS011;48683;48.084;17.272;2023-06-26T04:09:22;8.98;;;6.75;;
62610;SDS011;48683;48.084;17.272;2023-06-26T04:11:47;9.10;;;7.13;;
62610;SDS011;48683;48.084;17.272;2023-06-26T04:14:12;10.30;;;7.30;;
62610;SDS011;48683;48.084;17.272;2023-06-26T04:16:38;8.93;;;7.00;;
62610;SDS011;48683;48.084;17.272;2023-06-26T04:19:03;11.43;;;7.30;;
62610;SDS011;48683;48.084;17.272;2023-06-26T04:21:29;8.32;;;7.25;;
62610;SDS011;48683;48.084;17.272;2023-06-26T04:23:55;9.10;;;7.53;;
62610;SDS011;48683;48.084;17.272;2023-06-26T04:26:21;8.87;;;6.97;;
62610;SDS011;48683;48.084;17.272;2023-06-26T04:28:46;8.83;;;6.70;;
62610;SDS011;48683;48.084;17.272;2023-06-26T04:31:11;9.33;;;7.20;;
62610;SDS011;48683;48.084;17.272;2023-06-26T04:33:37;7.97;;;7.13;;
62610;SDS011;48683;48.084;17.272;2023-06-26T04:36:05;9.70;;;7.47;;
62610;SDS011;48683;48.084;17.272;2023-06-26T04:38:31;9.82;;;7.43;;
62610;SDS011;48683;48.084;17.272;2023-06-26T04:40:58;7.72;;;6.60;;
62610;SDS011;48683;48.084;17.272;2023-06-26T04:43:23;9.80;;;7.30;;
62610;SDS011;48683;48.084;17.272;2023-06-26T04:45:49;7.03;;;6.30;;
62610;SDS011;48683;48.084;17.272;2023-06-26T04:48:14;7.27;;;6.17;;
62610;SDS011;48683;48.084;17.272;2023-06-26T04:50:39;9.13;;;7.37;;
62610;SDS011;48683;48.084;17.272;2023-06-26T04:53:05;8.17;;;7.33;;
62610;SDS011;48683;48.084;17.272;2023-06-26T04:55:30;10.03;;;7.83;;
62610;SDS011;48683;48.084;17.272;2023-06-26T04:57:55;7.83;;;6.97;;
62610;SDS011;48683;48.084;17.272;2023-06-26T05:00:21;11.40;;;7.23;;
62610;SDS011;48683;48.084;17.272;2023-06-26T05:02:47;8.93;;;7.85;;
62610;SDS011;48683;48.084;17.272;2023-06-26T05:05:13;9.67;;;8.00;;
62610;SDS011;48683;48.084;17.272;2023-06-26T05:07:38;9.00;;;7.30;;
62610;SDS011;48683;48.084;17.272;2023-06-26T05:10:06;8.95;;;7.07;;
62610;SDS011;48683;48.084;17.272;2023-06-26T05:12:31;9.63;;;8.03;;
62610;SDS011;48683;48.084;17.272;2023-06-26T05:14:57;8.77;;;7.53;;
62610;SDS011;48683;48.084;17.272;2023-06-26T05:17:22;11.90;;;7.73;;
62610;SDS011;48683;48.084;17.272;2023-06-26T05:19:47;10.00;;;8.00;;
62610;SDS011;48683;48.084;17.272;2023-06-26T05:22:13;12.70;;;7.70;;
62610;SDS011;48683;48.084;17.272;2023-06-26T05:24:38;12.90;;;7.50;;
62610;SDS011;48683;48.084;17.272;2023-06-26T05:27:04;10.90;;;7.13;;
62610;SDS011;48683;48.084;17.272;2023-06-26T05:29:31;16.37;;;8.53;;
62610;SDS011;48683;48.084;17.272;2023-06-26T05:31:56;7.93;;;7.13;;
62610;SDS011;48683;48.084;17.272;2023-06-26T05:34:22;9.77;;;7.97;;
62610;SDS011;48683;48.084;17.272;2023-06-26T05:39:15;9.90;;;7.90;;
62610;SDS011;48683;48.084;17.272;2023-06-26T05:41:43;7.27;;;6.30;;
62610;SDS011;48683;48.084;17.272;2023-06-26T05:44:09;7.57;;;6.88;;
62610;SDS011;48683;48.084;17.272;2023-06-26T05:46:35;8.07;;;7.27;;
62610;SDS011;48683;48.084;17.272;2023-06-26T05:49:01;9.73;;;7.13;;
62610;SDS011;48683;48.084;17.272;2023-06-26T05:51:27;9.17;;;6.50;;
62610;SDS011;48683;48.084;17.272;2023-06-26T05:53:53;8.50;;;6.55;;
62610;SDS011;48683;48.084;17.272;2023-06-26T05:56:18;11.77;;;6.90;;
62610;SDS011;48683;48.084;17.272;2023-06-26T05:58:44;8.57;;;6.70;;
62610;SDS011;48683;48.084;17.272;2023-06-26T06:01:10;14.27;;;7.70;;
62610;SDS011;48683;48.084;17.272;2023-06-26T06:03:36;11.33;;;6.40;;
62610;SDS011;48683;48.084;17.272;2023-06-26T06:06:01;10.33;;;7.20;;
62610;SDS011;48683;48.084;17.272;2023-06-26T06:08:26;11.47;;;6.73;;
62610;SDS011;48683;48.084;17.272;2023-06-26T06:10:52;4.20;;;3.80;;
62610;SDS011;48683;48.084;17.272;2023-06-26T06:13:18;6.05;;;4.50;;
62610;SDS011;48683;48.084;17.272;2023-06-26T06:15:43;5.27;;;4.53;;
62610;SDS011;48683;48.084;17.272;2023-06-26T06:18:08;5.07;;;4.30;;
62610;SDS011;48683;48.084;17.272;2023-06-26T06:20:34;5.97;;;3.90;;
62610;SDS011;48683;48.084;17.272;2023-06-26T06:23:00;8.57;;;4.00;;
62610;SDS011;48683;48.084;17.272;2023-06-26T06:25:25;13.50;;;4.47;;
62610;SDS011;48683;48.084;17.272;2023-06-26T06:27:50;7.87;;;4.37;;
62610;SDS011;48683;48.084;17.272;2023-06-26T06:30:16;7.20;;;4.37;;
62610;SDS011;48683;48.084;17.272;2023-06-26T06:32:41;7.33;;;4.37;;
62610;SDS011;48683;48.084;17.272;2023-06-26T06:35:07;7.43;;;4.43;;
62610;SDS011;48683;48.084;17.272;2023-06-26T06:37:35;5.93;;;4.00;;
62610;SDS011;48683;48.084;17.272;2023-06-26T06:40:01;5.07;;;4.38;;
62610;SDS011;48683;48.084;17.272;2023-06-26T06:42:28;6.13;;;4.20;;
62610;SDS011;48683;48.084;17.272;2023-06-26T06:44:53;5.13;;;4.03;;
62610;SDS011;48683;48.084;17.272;2023-06-26T06:47:19;6.43;;;3.70;;
62610;SDS011;48683;48.084;17.272;2023-06-26T06:49:44;4.50;;;4.10;;
62610;SDS011;48683;48.084;17.272;2023-06-26T06:52:09;4.47;;;3.80;;
62610;SDS011;48683;48.084;17.272;2023-06-26T06:54:50;4.47;;;3.70;;
62610;SDS011;48683;48.084;17.272;2023-06-26T06:57:20;6.75;;;4.22;;
62610;SDS011;48683;48.084;17.272;2023-06-26T07:02:12;5.50;;;4.03;;
62610;SDS011;48683;48.084;17.272;2023-06-26T07:04:38;4.68;;;3.80;;
62610;SDS011;48683;48.084;17.272;2023-06-26T07:07:03;5.03;;;3.60;;
62610;SDS011;48683;48.084;17.272;2023-06-26T07:09:29;5.60;;;3.90;;
62610;SDS011;48683;48.084;17.272;2023-06-26T07:11:54;4.27;;;3.60;;
62610;SDS011;48683;48.084;17.272;2023-06-26T07:14:19;3.83;;;3.43;;
62610;SDS011;48683;48.084;17.272;2023-06-26T07:16:44;9.30;;;3.97;;
62610;SDS011;48683;48.084;17.272;2023-06-26T07:19:10;4.50;;;3.77;;
62610;SDS011;48683;48.084;17.272;2023-06-26T07:21:35;4.67;;;3.70;;
62610;SDS011;48683;48.084;17.272;2023-06-26T07:24:00;5.23;;;3.80;;
62610;SDS011;48683;48.084;17.272;2023-06-26T07:26:26;9.35;;;3.80;;
62610;SDS011;48683;48.084;17.272;2023-06-26T07:28:51;5.17;;;3.37;;
62610;SDS011;48683;48.084;17.272;2023-06-26T07:31:17;4.50;;;3.73;;
62610;SDS011;48683;48.084;17.272;2023-06-26T07:33:42;5.70;;;3.50;;
62610;SDS011;48683;48.084;17.272;2023-06-26T07:36:07;5.07;;;3.77;;
62610;SDS011;48683;48.084;17.272;2023-06-26T07:38:33;3.93;;;3.37;;
62610;SDS011;48683;48.084;17.272;2023-06-26T07:40:58;4.67;;;3.63;;
62610;SDS011;48683;48.084;17.272;2023-06-26T07:43:23;5.33;;;3.60;;
62610;SDS011;48683;48.084;17.272;2023-06-26T07:45:49;3.70;;;3.40;;
62610;SDS011;48683;48.084;17.272;2023-06-26T07:48:16;4.38;;;3.10;;
62610;SDS011;48683;48.084;17.272;2023-06-26T07:50:41;4.47;;;3.50;;
62610;SDS011;48683;48.084;17.272;2023-06-26T07:53:07;6.60;;;3.73;;
62610;SDS011;48683;48.084;17.272;2023-06-26T07:55:32;3.90;;;3.50;;
62610;SDS011;48683;48.084;17.272;2023-06-26T07:57:57;3.70;;;3.37;;
62610;SDS011;48683;48.084;17.272;2023-06-26T08:00:23;3.63;;;3.30;;
62610;SDS011;48683;48.084;17.272;2023-06-26T08:02:48;3.90;;;3.50;;
62610;SDS011;48683;48.084;17.272;2023-06-26T08:05:14;4.60;;;3.50;;
62610;SDS011;48683;48.084;17.272;2023-06-26T08:07:39;7.80;;;3.40;;
62610;SDS011;48683;48.084;17.272;2023-06-26T08:10:05;3.60;;;3.13;;
62610;SDS011;48683;48.084;17.272;2023-06-26T08:12:30;5.80;;;3.80;;
62610;SDS011;48683;48.084;17.272;2023-06-26T08:14:56;4.17;;;3.37;;
62610;SDS011;48683;48.084;17.272;2023-06-26T08:17:21;4.50;;;3.00;;
62610;SDS011;48683;48.084;17.272;2023-06-26T08:19:46;3.67;;;2.80;;
62610;SDS011;48683;48.084;17.272;2023-06-26T08:22:12;3.87;;;3.00;;
62610;SDS011;48683;48.084;17.272;2023-06-26T08:24:37;4.70;;;3.35;;
62610;SDS011;48683;48.084;17.272;2023-06-26T08:27:03;3.40;;;3.10;;
62610;SDS011;48683;48.084;17.272;2023-06-26T08:29:29;3.40;;;3.00;;
62610;SDS011;48683;48.084;17.272;2023-06-26T08:31:54;4.10;;;3.13;;
62610;SDS011;48683;48.084;17.272;2023-06-26T08:34:19;5.13;;;3.43;;
62610;SDS011;48683;48.084;17.272;2023-06-26T08:36:45;4.80;;;3.03;;
62610;SDS011;48683;48.084;17.272;2023-06-26T08:39:10;3.67;;;3.07;;
62610;SDS011;48683;48.084;17.272;2023-06-26T08:41:35;3.93;;;3.40;;
62610;SDS011;48683;48.084;17.272;2023-06-26T08:44:01;4.10;;;3.43;;
62610;SDS011;48683;48.084;17.272;2023-06-26T08:46:28;5.40;;;3.10;;
62610;SDS011;48683;48.084;17.272;2023-06-26T08:48:58;4.53;;;3.43;;
62610;SDS011;48683;48.084;17.272;2023-06-26T08:51:27;5.10;;;3.80;;
62610;SDS011;48683;48.084;17.272;2023-06-26T08:53:57;5.20;;;3.40;;
62610;SDS011;48683;48.084;17.272;2023-06-26T08:56:24;6.10;;;3.13;;
62610;SDS011;48683;48.084;17.272;2023-06-26T08:58:53;3.95;;;3.58;;
62610;SDS011;48683;48.084;17.272;2023-06-26T09:01:20;5.20;;;3.42;;
62610;SDS011;48683;48.084;17.272;2023-06-26T09:03:45;4.93;;;3.40;;
62610;SDS011;48683;48.084;17.272;2023-06-26T09:06:11;3.88;;;3.50;;
62610;SDS011;48683;48.084;17.272;2023-06-26T09:08:36;4.90;;;3.10;;
62610;SDS011;48683;48.084;17.272;2023-06-26T09:11:02;4.17;;;3.17;;
62610;SDS011;48683;48.084;17.272;2023-06-26T09:13:30;6.03;;;3.77;;
62610;SDS011;48683;48.084;17.272;2023-06-26T09:15:56;9.15;;;3.80;;
62610;SDS011;48683;48.084;17.272;2023-06-26T09:18:22;3.50;;;3.20;;
62610;SDS011;48683;48.084;17.272;2023-06-26T09:20:48;4.20;;;3.80;;
62610;SDS011;48683;48.084;17.272;2023-06-26T09:23:13;4.75;;;3.38;;
62610;SDS011;48683;48.084;17.272;2023-06-26T09:25:39;4.83;;;3.53;;
62610;SDS011;48683;48.084;17.272;2023-06-26T09:28:05;3.85;;;3.45;;
62610;SDS011;48683;48.084;17.272;2023-06-26T09:30:34;4.20;;;3.80;;
62610;SDS011;48683;48.084;17.272;2023-06-26T09:33:21;4.65;;;3.70;;
62610;SDS011;48683;48.084;17.272;2023-06-26T09:35:46;6.03;;;3.80;;
62610;SDS011;48683;48.084;17.272;2023-06-26T09:38:13;4.57;;;4.18;;
62610;SDS011;48683;48.084;17.272;2023-06-26T09:40:39;5.55;;;4.10;;
62610;SDS011;48683;48.084;17.272;2023-06-26T09:43:05;4.78;;;4.00;;
62610;SDS011;48683;48.084;17.272;2023-06-26T09:45:39;4.80;;;4.40;;
62610;SDS011;48683;48.084;17.272;2023-06-26T09:48:04;5.32;;;4.22;;
62610;SDS011;48683;48.084;17.272;2023-06-26T09:50:33;4.60;;;4.10;;
62610;SDS011;48683;48.084;17.272;2023-06-26T09:53:06;4.72;;;3.75;;
62610;SDS011;48683;48.084;17.272;2023-06-26T09:55:36;5.57;;;3.90;;
62610;SDS011;48683;48.084;17.272;2023-06-26T10:00:27;5.32;;;4.20;;
62610;SDS011;48683;48.084;17.272;2023-06-26T10:02:53;4.30;;;3.93;;
62610;SDS011;48683;48.084;17.272;2023-06-26T10:05:19;4.50;;;4.00;;
62610;SDS011;48683;48.084;17.272;2023-06-26T10:07:44;4.70;;;4.28;;
62610;SDS011;48683;48.084;17.272;2023-06-26T10:10:11;3.92;;;3.63;;
62610;SDS011;48683;48.084;17.272;2023-06-26T10:15:03;6.07;;;4.23;;
62610;SDS011;48683;48.084;17.272;2023-06-26T10:17:30;4.25;;;3.85;;
62610;SDS011;48683;48.084;17.272;2023-06-26T10:19:59;4.82;;;3.90;;
62610;SDS011;48683;48.084;17.272;2023-06-26T10:22:29;4.85;;;3.92;;
62610;SDS011;48683;48.084;17.272;2023-06-26T10:25:00;4.75;;;4.25;;
62610;SDS011;48683;48.084;17.272;2023-06-26T10:27:33;4.03;;;3.67;;
62610;SDS011;48683;48.084;17.272;2023-06-26T10:30:03;5.38;;;3.75;;
62610;SDS011;48683;48.084;17.272;2023-06-26T10:32:31;4.53;;;3.65;;
62610;SDS011;48683;48.084;17.272;2023-06-26T10:34:57;5.20;;;3.88;;
62610;SDS011;48683;48.084;17.272;2023-06-26T10:40:14;5.00;;;3.90;;
62610;SDS011;48683;48.084;17.272;2023-06-26T10:42:46;4.10;;;3.70;;
62610;SDS011;48683;48.084;17.272;2023-06-26T10:45:15;4.03;;;3.40;;
62610;SDS011;48683;48.084;17.272;2023-06-26T10:47:47;4.32;;;3.92;;
62610;SDS011;48683;48.084;17.272;2023-06-26T10:55:36;4.07;;;3.67;;
62610;SDS011;48683;48.084;17.272;2023-06-26T11:00:27;3.75;;;3.40;;
62610;SDS011;48683;48.084;17.272;2023-06-26T11:02:54;4.32;;;3.20;;
62610;SDS011;48683;48.084;17.272;2023-06-26T11:05:26;4.97;;;3.50;;
62610;SDS011;48683;48.084;17.272;2023-06-26T11:08:02;6.25;;;3.80;;
62610;SDS011;48683;48.084;17.272;2023-06-26T11:10:48;4.85;;;3.70;;
62610;SDS011;48683;48.084;17.272;2023-06-26T11:13:18;4.82;;;4.20;;
62610;SDS011;48683;48.084;17.272;2023-06-26T11:15:44;3.97;;;3.58;;
62610;SDS011;48683;48.084;17.272;2023-06-26T11:18:10;3.72;;;3.42;;
62610;SDS011;48683;48.084;17.272;2023-06-26T11:20:35;4.05;;;3.65;;
62610;SDS011;48683;48.084;17.272;2023-06-26T11:23:01;7.67;;;3.57;;
62610;SDS011;48683;48.084;17.272;2023-06-26T11:25:29;4.00;;;3.28;;
62610;SDS011;48683;48.084;17.272;2023-06-26T11:27:55;3.97;;;3.53;;
62610;SDS011;48683;48.084;17.272;2023-06-26T11:30:24;4.33;;;3.63;;
62610;SDS011;48683;48.084;17.272;2023-06-26T11:32:50;4.97;;;3.60;;
62610;SDS011;48683;48.084;17.272;2023-06-26T11:35:22;5.40;;;3.85;;
62610;SDS011;48683;48.084;17.272;2023-06-26T11:37:55;4.13;;;3.60;;
62610;SDS011;48683;48.084;17.272;2023-06-26T11:40:22;3.83;;;3.53;;
62610;SDS011;48683;48.084;17.272;2023-06-26T11:42:52;5.88;;;3.47;;
62610;SDS011;48683;48.084;17.272;2023-06-26T11:47:44;4.60;;;3.30;;
62610;SDS011;48683;48.084;17.272;2023-06-26T11:50:14;5.27;;;3.80;;
62610;SDS011;48683;48.084;17.272;2023-06-26T11:52:43;3.80;;;3.40;;
62610;SDS011;48683;48.084;17.272;2023-06-26T11:55:10;5.03;;;3.60;;
62610;SDS011;48683;48.084;17.272;2023-06-26T11:57:38;4.97;;;3.88;;
62610;SDS011;48683;48.084;17.272;2023-06-26T12:00:10;3.90;;;3.50;;
62610;SDS011;48683;48.084;17.272;2023-06-26T12:02:36;6.40;;;3.88;;
62610;SDS011;48683;48.084;17.272;2023-06-26T12:05:03;5.97;;;3.90;;
62610;SDS011;48683;48.084;17.272;2023-06-26T12:07:29;4.60;;;3.80;;
62610;SDS011;48683;48.084;17.272;2023-06-26T12:09:56;4.07;;;3.67;;
62610;SDS011;48683;48.084;17.272;2023-06-26T12:12:23;4.43;;;3.83;;
62610;SDS011;48683;48.084;17.272;2023-06-26T12:14:50;4.05;;;3.75;;
62610;SDS011;48683;48.084;17.272;2023-06-26T12:17:16;4.50;;;3.45;;
62610;SDS011;48683;48.084;17.272;2023-06-26T12:19:43;3.72;;;3.42;;
62610;SDS011;48683;48.084;17.272;2023-06-26T12:22:12;3.67;;;3.35;;
62610;SDS011;48683;48.084;17.272;2023-06-26T12:24:38;4.10;;;3.63;;
62610;SDS011;48683;48.084;17.272;2023-06-26T12:27:11;3.83;;;3.35;;
62610;SDS011;48683;48.084;17.272;2023-06-26T12:29:38;5.20;;;3.38;;
62610;SDS011;48683;48.084;17.272;2023-06-26T12:32:08;3.47;;;3.13;;
62610;SDS011;48683;48.084;17.272;2023-06-26T12:34:36;5.95;;;3.60;;
62610;SDS011;48683;48.084;17.272;2023-06-26T12:37:04;3.65;;;3.25;;
62610;SDS011;48683;48.084;17.272;2023-06-26T12:39:44;4.13;;;3.70;;
62610;SDS011;48683;48.084;17.272;2023-06-26T12:42:20;4.78;;;3.80;;
62610;SDS011;48683;48.084;17.272;2023-06-26T12:44:47;3.92;;;3.60;;
62610;SDS011;48683;48.084;17.272;2023-06-26T12:47:14;3.90;;;3.50;;
62610;SDS011;48683;48.084;17.272;2023-06-26T12:49:41;3.70;;;3.40;;
62610;SDS011;48683;48.084;17.272;2023-06-26T12:52:09;4.22;;;3.78;;
62610;SDS011;48683;48.084;17.272;2023-06-26T12:54:37;5.30;;;3.70;;
62610;SDS011;48683;48.084;17.272;2023-06-26T12:57:04;3.65;;;3.35;;
62610;SDS011;48683;48.084;17.272;2023-06-26T12:59:30;4.10;;;3.53;;
62610;SDS011;48683;48.084;17.272;2023-06-26T13:01:56;4.10;;;3.72;;
62610;SDS011;48683;48.084;17.272;2023-06-26T13:06:47;3.80;;;3.50;;
62610;SDS011;48683;48.084;17.272;2023-06-26T13:09:13;5.43;;;4.00;;
62610;SDS011;48683;48.084;17.272;2023-06-26T13:11:38;4.10;;;3.70;;
62610;SDS011;48683;48.084;17.272;2023-06-26T13:14:04;4.28;;;3.45;;
62610;SDS011;48683;48.084;17.272;2023-06-26T13:16:29;4.95;;;3.35;;
62610;SDS011;48683;48.084;17.272;2023-06-26T13:18:54;3.87;;;3.47;;
62610;SDS011;48683;48.084;17.272;2023-06-26T13:23:46;6.25;;;3.83;;
62610;SDS011;48683;48.084;17.272;2023-06-26T13:26:12;3.90;;;3.40;;
62610;SDS011;48683;48.084;17.272;2023-06-26T13:28:37;3.97;;;3.58;;
62610;SDS011;48683;48.084;17.272;2023-06-26T13:31:03;4.28;;;3.70;;
62610;SDS011;48683;48.084;17.272;2023-06-26T13:33:29;5.38;;;3.80;;
62610;SDS011;48683;48.084;17.272;2023-06-26T13:35:55;4.30;;;3.83;;
62610;SDS011;48683;48.084;17.272;2023-06-26T13:38:21;4.18;;;3.40;;
62610;SDS011;48683;48.084;17.272;2023-06-26T13:40:51;4.03;;;3.63;;
62610;SDS011;48683;48.084;17.272;2023-06-26T13:43:17;3.85;;;3.55;;
62610;SDS011;48683;48.084;17.272;2023-06-26T13:45:43;3.50;;;3.20;;
62610;SDS011;48683;48.084;17.272;2023-06-26T13:48:09;4.03;;;3.63;;
62610;SDS011;48683;48.084;17.272;2023-06-26T13:50:34;4.53;;;4.00;;
62610;SDS011;48683;48.084;17.272;2023-06-26T13:53:02;4.30;;;3.90;;
62610;SDS011;48683;48.084;17.272;2023-06-26T13:55:27;3.63;;;3.33;;
62610;SDS011;48683;48.084;17.272;2023-06-26T13:57:53;7.07;;;3.90;;
62610;SDS011;48683;48.084;17.272;2023-06-26T14:00:18;3.43;;;3.13;;
62610;SDS011;48683;48.084;17.272;2023-06-26T14:02:46;5.47;;;3.60;;
62610;SDS011;48683;48.084;17.272;2023-06-26T14:05:12;4.00;;;3.70;;
62610;SDS011;48683;48.084;17.272;2023-06-26T14:07:39;5.10;;;3.97;;
62610;SDS011;48683;48.084;17.272;2023-06-26T14:10:04;3.75;;;3.45;;
62610;SDS011;48683;48.084;17.272;2023-06-26T14:12:31;4.28;;;3.45;;
62610;SDS011;48683;48.084;17.272;2023-06-26T14:14:56;5.20;;;3.55;;
62610;SDS011;48683;48.084;17.272;2023-06-26T14:17:22;5.03;;;3.60;;
62610;SDS011;48683;48.084;17.272;2023-06-26T14:19:49;3.92;;;3.35;;
62610;SDS011;48683;48.084;17.272;2023-06-26T14:22:14;6.13;;;3.95;;
62610;SDS011;48683;48.084;17.272;2023-06-26T14:24:40;3.53;;;3.22;;
62610;SDS011;48683;48.084;17.272;2023-06-26T14:27:05;4.03;;;3.63;;
62610;SDS011;48683;48.084;17.272;2023-06-26T14:29:31;3.97;;;3.67;;
62610;SDS011;48683;48.084;17.272;2023-06-26T14:31:56;6.35;;;3.92;;
62610;SDS011;48683;48.084;17.272;2023-06-26T14:34:21;3.80;;;3.40;;
62610;SDS011;48683;48.084;17.272;2023-06-26T14:36:47;4.15;;;3.35;;
62610;SDS011;48683;48.084;17.272;2023-06-26T14:39:12;3.90;;;3.50;;
62610;SDS011;48683;48.084;17.272;2023-06-26T14:44:03;4.37;;;3.53;;
62610;SDS011;48683;48.084;17.272;2023-06-26T14:46:29;3.45;;;3.15;;
62610;SDS011;48683;48.084;17.272;2023-06-26T14:48:55;3.53;;;3.23;;
62610;SDS011;48683;48.084;17.272;2023-06-26T14:51:20;7.25;;;3.53;;
62610;SDS011;48683;48.084;17.272;2023-06-26T14:53:46;4.47;;;3.60;;
62610;SDS011;48683;48.084;17.272;2023-06-26T14:58:37;3.70;;;3.40;;
62610;SDS011;48683;48.084;17.272;2023-06-26T15:01:03;3.50;;;3.20;;
62610;SDS011;48683;48.084;17.272;2023-06-26T15:03:28;5.10;;;3.20;;
62610;SDS011;48683;48.084;17.272;2023-06-26T15:05:54;4.67;;;3.90;;